Archival Weather

Václav Havel Intl Apt

Prague, Czechia (LKPR)

Report from: Monday, May 29, 2023 7:00 PM CEST
Current time: Saturday, March 2, 2024 11:31 AM CET

Current weather – Weather history – Daily summaries
Weather forecast

Temperature21.0°C (69.8°F)
Dew point5.0°C (41.0°F)
Winds 10 kts (5.1 m/s, 11.5 mph) North (350°)
Clouds Sky clear
Altimeter30.09 in.Hg (1019 mB)
Relative humidity35 %
Density altitude637 ft. (194 m)
Remarks Ceiling and visibility OK
No significant changes expected in the next two hours
Flight conditions Visual Meteorological Conditions
Raw dataLKPR 291700Z 35010KT CAVOK 21/05 Q1019 NOSIG
An error has occurred. This application may no longer respond until reloaded. Reload 🗙